Time;durP1;ratioP1;P1;durP2;ratioP2;P2;SDS_P1;SDS_P2;PMS_P1;PMS_P2;Temp;Humidity;BMP_temperature;BMP_pressure;BME280_temperature;BME280_humidity;BME280_pressure;Samples;Min_cycle;Max_cycle;Signal;HPM_P1;HPM_P2
2024/02/27 00:00:15;;;;;;;0.30;0.30;;;8.80;99.90;;;;;;4927631;29;20471;-83
2024/02/27 00:02:43;;;;;;;1.70;0.40;;;8.70;99.90;;;;;;4941386;29;20550;-83
2024/02/27 00:05:09;;;;;;;0.50;0.50;;;8.60;99.90;;;;;;4940971;29;20440;-83
2024/02/27 00:07:36;;;;;;;0.50;0.40;;;8.60;99.90;;;;;;4939255;29;20436;-82
2024/02/27 00:10:04;;;;;;;0.30;0.30;;;8.70;99.90;;;;;;4929923;29;20468;-83
2024/02/27 00:12:31;;;;;;;0.30;0.30;;;8.60;99.90;;;;;;4924122;29;20448;-82
2024/02/27 00:14:57;;;;;;;0.43;0.40;;;8.50;99.90;;;;;;4924590;29;20488;-82
2024/02/27 00:17:24;;;;;;;0.50;0.40;;;8.60;99.90;;;;;;4924637;29;20455;-82
2024/02/27 00:19:52;;;;;;;0.40;0.37;;;8.60;99.90;;;;;;4925234;29;21003;-83
2024/02/27 00:22:19;;;;;;;0.60;0.30;;;8.60;99.90;;;;;;4924616;29;20459;-82
2024/02/27 00:24:45;;;;;;;0.40;0.30;;;8.60;99.90;;;;;;4924782;29;20452;-82
2024/02/27 00:27:12;;;;;;;0.50;0.50;;;8.60;99.90;;;;;;4924381;29;20440;-82
2024/02/27 00:29:40;;;;;;;0.37;0.30;;;8.60;99.90;;;;;;4923973;29;20860;-82
2024/02/27 00:32:07;;;;;;;0.40;0.30;;;8.60;99.90;;;;;;4923892;29;20542;-82
2024/02/27 00:34:35;;;;;;;0.70;0.70;;;8.60;99.90;;;;;;4924039;29;20466;-82
2024/02/27 00:37:03;;;;;;;0.40;0.40;;;8.60;99.90;;;;;;4922997;29;20490;-83
2024/02/27 00:39:30;;;;;;;0.93;0.67;;;8.50;99.90;;;;;;4922889;29;20483;-81
2024/02/27 00:41:57;;;;;;;0.67;0.40;;;8.50;99.90;;;;;;4922657;29;20456;-81
2024/02/27 00:44:23;;;;;;;0.40;0.30;;;8.50;99.90;;;;;;4922717;29;20459;-82
2024/02/27 00:46:50;;;;;;;0.30;0.30;;;8.50;99.90;;;;;;4922791;29;20444;-82
2024/02/27 00:49:17;;;;;;;0.57;0.37;;;8.50;99.90;;;;;;4922313;29;20467;-81
2024/02/27 00:51:44;;;;;;;0.40;0.40;;;8.60;99.90;;;;;;4921885;29;20826;-82
2024/02/27 00:54:12;;;;;;;0.70;0.43;;;8.60;99.90;;;;;;4921498;29;20436;-82
2024/02/27 00:56:38;;;;;;;0.40;0.40;;;8.60;99.90;;;;;;4922742;29;20488;-80
2024/02/27 00:59:05;;;;;;;0.40;0.30;;;8.50;99.90;;;;;;4926243;29;20480;-82
2024/02/27 01:01:32;;;;;;;0.30;0.30;;;8.50;99.90;;;;;;4923872;29;20452;-82
2024/02/27 01:03:59;;;;;;;0.50;0.50;;;8.50;99.90;;;;;;4921977;29;20452;-83
2024/02/27 01:06:25;;;;;;;0.93;0.37;;;8.60;99.90;;;;;;4921439;29;20460;-81
2024/02/27 01:08:52;;;;;;;0.40;0.30;;;8.60;99.90;;;;;;4921656;29;20479;-83
2024/02/27 01:11:20;;;;;;;1.07;0.60;;;8.60;99.90;;;;;;4921145;29;20942;-84
2024/02/27 01:13:47;;;;;;;0.90;0.80;;;8.60;99.90;;;;;;4919846;29;20452;-83
2024/02/27 01:16:13;;;;;;;0.70;0.30;;;8.50;99.90;;;;;;4918540;29;20981;-83
2024/02/27 01:18:40;;;;;;;0.50;0.50;;;8.50;99.90;;;;;;4919007;29;20464;-83
2024/02/27 01:21:07;;;;;;;0.60;0.60;;;8.50;99.90;;;;;;4918795;29;20459;-83
2024/02/27 01:23:34;;;;;;;0.40;0.40;;;8.50;99.90;;;;;;4918862;29;20983;-83
2024/02/27 01:26:01;;;;;;;0.40;0.33;;;8.50;99.90;;;;;;4918541;29;20455;-83
2024/02/27 01:28:29;;;;;;;0.50;0.40;;;8.50;99.90;;;;;;4918291;29;20483;-83
2024/02/27 01:30:55;;;;;;;0.40;0.30;;;8.40;99.90;;;;;;4918504;29;20495;-83
2024/02/27 01:33:22;;;;;;;1.37;0.50;;;8.50;99.90;;;;;;4918545;29;20460;-83
2024/02/27 01:35:49;;;;;;;0.50;0.40;;;8.50;99.90;;;;;;4918652;29;20491;-83
2024/02/27 01:38:16;;;;;;;0.40;0.30;;;8.50;99.90;;;;;;4924656;29;20930;-82
2024/02/27 01:40:42;;;;;;;0.70;0.40;;;8.40;99.90;;;;;;4922001;29;20463;-82
2024/02/27 01:43:20;;;;;;;0.83;0.50;;;8.40;99.90;;;;;;4921096;29;20459;-82
2024/02/27 01:45:49;;;;;;;0.30;0.30;;;8.40;99.90;;;;;;4921166;29;20435;-82
2024/02/27 01:48:16;;;;;;;0.30;0.30;;;8.40;99.90;;;;;;4920451;29;20471;-83
2024/02/27 01:50:45;;;;;;;0.37;0.30;;;8.50;99.90;;;;;;4920526;29;20820;-82
2024/02/27 01:53:12;;;;;;;0.30;0.30;;;8.40;99.90;;;;;;4920717;29;20456;-82
2024/02/27 01:55:39;;;;;;;0.63;0.63;;;8.40;99.90;;;;;;4920656;29;20452;-83
2024/02/27 01:58:06;;;;;;;0.40;0.30;;;8.40;99.90;;;;;;4920682;29;20989;-82
2024/02/27 02:00:33;;;;;;;0.37;0.30;;;8.30;99.90;;;;;;4919935;29;20436;-82
2024/02/27 02:03:02;;;;;;;1.43;0.40;;;8.30;99.90;;;;;;4920233;29;20942;-82
2024/02/27 02:05:29;;;;;;;0.30;0.30;;;8.30;99.90;;;;;;4920352;29;20475;-82
2024/02/27 02:07:58;;;;;;;0.93;0.40;;;8.20;99.90;;;;;;4920000;29;20463;-83
2024/02/27 02:10:25;;;;;;;1.30;0.50;;;8.20;99.90;;;;;;4919416;29;21019;-83
2024/02/27 02:12:52;;;;;;;0.53;0.53;;;8.20;99.90;;;;;;4920146;29;20803;-83
2024/02/27 02:15:18;;;;;;;0.50;0.33;;;8.10;99.90;;;;;;4918592;29;20449;-83
2024/02/27 02:17:45;;;;;;;0.40;0.37;;;8.10;99.90;;;;;;4918640;29;20492;-83
2024/02/27 02:20:17;;;;;;;0.37;0.30;;;8.10;99.90;;;;;;4918619;29;20480;-82
2024/02/27 02:22:44;;;;;;;0.40;0.40;;;8.10;99.90;;;;;;4918340;29;20416;-83
2024/02/27 02:25:12;;;;;;;0.50;0.40;;;8.10;99.90;;;;;;4918629;29;20456;-83
2024/02/27 02:27:43;;;;;;;0.40;0.40;;;8.10;99.90;;;;;;4918669;29;20593;-83
2024/02/27 02:30:11;;;;;;;0.70;0.40;;;9.30;99.90;;;;;;4918589;29;20928;-83
2024/02/27 02:32:46;;;;;;;0.70;0.50;;;8.10;99.90;;;;;;4918241;29;20457;-83
2024/02/27 02:35:13;;;;;;;0.50;0.40;;;8.00;99.90;;;;;;4918602;29;20444;-83
2024/02/27 02:37:41;;;;;;;1.03;0.47;;;8.00;99.90;;;;;;4918059;29;20491;-83
2024/02/27 02:40:09;;;;;;;0.60;0.50;;;8.00;99.90;;;;;;4918778;29;20482;-83
2024/02/27 02:42:35;;;;;;;0.40;0.40;;;8.00;99.90;;;;;;4918677;29;20460;-82
2024/02/27 02:45:02;;;;;;;0.50;0.50;;;8.00;99.90;;;;;;4918517;29;20441;-83
2024/02/27 02:47:29;;;;;;;2.20;0.57;;;8.00;99.90;;;;;;4923762;29;20452;-82
2024/02/27 02:49:56;;;;;;;0.63;0.63;;;7.90;99.90;;;;;;4939227;29;20465;-82
2024/02/27 02:52:22;;;;;;;0.50;0.50;;;7.90;99.90;;;;;;4939149;29;20460;-82
2024/02/27 02:54:50;;;;;;;0.73;0.40;;;7.90;99.90;;;;;;4937449;29;20462;-81
2024/02/27 02:57:17;;;;;;;0.53;0.53;;;7.90;99.90;;;;;;4929491;29;20494;-81
2024/02/27 02:59:44;;;;;;;5.20;0.60;;;7.90;99.90;;;;;;4926545;29;20476;-81
2024/02/27 03:02:11;;;;;;;0.90;0.47;;;7.90;99.90;;;;;;4926590;29;20454;-81
2024/02/27 03:04:38;;;;;;;2.03;0.80;;;7.80;99.90;;;;;;4926238;29;20456;-81
2024/02/27 03:07:06;;;;;;;1.40;0.90;;;7.80;99.90;;;;;;4926148;29;20440;-82
2024/02/27 03:09:33;;;;;;;0.83;0.80;;;7.80;99.90;;;;;;4926496;29;20472;-81
2024/02/27 03:12:02;;;;;;;0.77;0.77;;;7.80;99.90;;;;;;4926286;29;20475;-81
2024/02/27 03:14:28;;;;;;;3.20;1.07;;;7.80;99.90;;;;;;4922050;29;20455;-83
2024/02/27 03:16:56;;;;;;;1.53;0.97;;;7.70;99.90;;;;;;4920523;29;20494;-83
2024/02/27 03:19:22;;;;;;;1.43;0.77;;;7.70;99.90;;;;;;4920677;29;20472;-82
2024/02/27 03:21:49;;;;;;;0.60;0.60;;;7.80;99.90;;;;;;4920550;29;20468;-83
2024/02/27 03:24:16;;;;;;;0.50;0.50;;;7.80;99.90;;;;;;4920394;29;20514;-83
2024/02/27 03:26:43;;;;;;;0.63;0.53;;;7.80;99.90;;;;;;4920668;29;20448;-83
2024/02/27 03:29:11;;;;;;;0.80;0.73;;;7.80;99.90;;;;;;4920141;29;20476;-83
2024/02/27 03:31:37;;;;;;;3.27;1.00;;;7.80;99.90;;;;;;4920717;29;20436;-82
2024/02/27 03:34:04;;;;;;;2.60;0.80;;;7.80;99.90;;;;;;4920307;29;20444;-83
2024/02/27 03:36:31;;;;;;;0.87;0.70;;;7.80;99.90;;;;;;4920208;29;21031;-83
2024/02/27 03:38:57;;;;;;;1.00;0.90;;;7.80;99.90;;;;;;4920033;29;20476;-83
2024/02/27 03:41:25;;;;;;;0.87;0.87;;;7.70;99.90;;;;;;4920492;29;20820;-83
2024/02/27 03:43:52;;;;;;;1.43;0.70;;;7.70;99.90;;;;;;4920429;29;20460;-83
2024/02/27 03:46:20;;;;;;;3.20;0.60;;;7.70;99.90;;;;;;4920209;29;20454;-83
2024/02/27 03:48:46;;;;;;;1.77;1.67;;;7.70;99.90;;;;;;4920833;29;20472;-82
2024/02/27 03:51:13;;;;;;;5.50;1.37;;;7.70;99.90;;;;;;4920283;29;20969;-82
2024/02/27 03:53:40;;;;;;;2.80;1.07;;;7.60;99.90;;;;;;4920532;29;20803;-82
2024/02/27 03:56:08;;;;;;;1.50;1.40;;;7.70;99.90;;;;;;4919759;29;20445;-82
2024/02/27 03:58:36;;;;;;;3.03;1.23;;;7.70;99.90;;;;;;4920313;29;20464;-82
2024/02/27 04:01:03;;;;;;;0.87;0.87;;;7.60;99.90;;;;;;4920193;29;20448;-83
2024/02/27 04:03:31;;;;;;;3.40;1.00;;;7.60;99.90;;;;;;4919664;29;20425;-81
2024/02/27 04:05:57;;;;;;;1.47;1.30;;;7.60;99.90;;;;;;4920015;29;20824;-83
2024/02/27 04:08:24;;;;;;;1.77;1.33;;;7.60;99.90;;;;;;4920351;29;21063;-83
2024/02/27 04:10:51;;;;;;;3.60;0.93;;;7.60;99.90;;;;;;4920101;29;20455;-83
2024/02/27 04:13:18;;;;;;;2.40;1.30;;;7.60;99.90;;;;;;4920047;29;20452;-83
2024/02/27 04:15:46;;;;;;;2.27;1.97;;;7.60;99.90;;;;;;4919820;29;20945;-83
2024/02/27 04:18:13;;;;;;;3.77;1.23;;;7.60;99.90;;;;;;4919369;29;20487;-83
2024/02/27 04:20:43;;;;;;;3.90;1.23;;;7.60;99.90;;;;;;4920137;29;20460;-83
2024/02/27 04:23:09;;;;;;;1.53;1.43;;;7.50;99.90;;;;;;4919493;29;20551;-82
2024/02/27 04:25:37;;;;;;;1.17;0.90;;;7.50;99.90;;;;;;4919785;29;20467;-82
2024/02/27 04:28:04;;;;;;;1.50;1.30;;;7.60;99.90;;;;;;4919784;29;20459;-84
2024/02/27 04:30:31;;;;;;;5.03;1.07;;;7.50;99.90;;;;;;4919541;29;20518;-82
2024/02/27 04:32:58;;;;;;;2.40;1.33;;;7.50;99.90;;;;;;4920035;29;20952;-83
2024/02/27 04:35:25;;;;;;;1.13;0.80;;;7.50;99.90;;;;;;4919679;29;20964;-82
2024/02/27 04:37:53;;;;;;;6.53;1.80;;;7.40;99.90;;;;;;4919566;29;20492;-83
2024/02/27 04:40:20;;;;;;;1.20;0.70;;;7.40;99.90;;;;;;4919887;29;20476;-82
2024/02/27 04:42:47;;;;;;;2.43;1.27;;;7.40;99.90;;;;;;4920222;29;20455;-82
2024/02/27 04:45:13;;;;;;;3.40;2.30;;;7.40;99.90;;;;;;4920383;29;20954;-82
2024/02/27 04:47:40;;;;;;;2.10;1.33;;;7.40;99.90;;;;;;4920305;29;20452;-83
2024/02/27 04:50:07;;;;;;;0.93;0.83;;;7.40;99.90;;;;;;4919477;29;20834;-83
2024/02/27 04:52:34;;;;;;;4.40;1.47;;;7.40;99.90;;;;;;4919502;29;20452;-83
2024/02/27 04:55:02;;;;;;;2.87;1.93;;;7.40;99.90;;;;;;4919114;29;20440;-83
2024/02/27 04:57:29;;;;;;;4.13;1.80;;;7.40;99.90;;;;;;4919554;29;20492;-83
2024/02/27 04:59:56;;;;;;;1.10;0.70;;;7.40;99.90;;;;;;4918844;29;20992;-84
2024/02/27 05:02:22;;;;;;;3.63;1.73;;;7.40;99.90;;;;;;4919195;29;20448;-83
2024/02/27 05:04:49;;;;;;;3.03;2.03;;;7.40;99.90;;;;;;4918846;29;20440;-83
2024/02/27 05:07:16;;;;;;;2.03;1.90;;;7.40;99.90;;;;;;4919450;29;20453;-83
2024/02/27 05:09:43;;;;;;;1.00;0.90;;;7.40;99.90;;;;;;4919151;29;20495;-82
2024/02/27 05:12:11;;;;;;;2.83;1.53;;;7.40;99.90;;;;;;4918546;29;20452;-82
2024/02/27 05:14:37;;;;;;;5.30;2.10;;;7.40;99.90;;;;;;4919352;29;20455;-83
2024/02/27 05:17:04;;;;;;;6.40;2.50;;;7.40;99.90;;;;;;4919001;29;21051;-82
2024/02/27 05:19:31;;;;;;;2.87;1.10;;;7.40;99.90;;;;;;4918831;29;20460;-83
2024/02/27 05:21:58;;;;;;;6.90;1.40;;;7.30;99.90;;;;;;4919903;29;20452;-83
2024/02/27 05:24:25;;;;;;;3.80;1.57;;;7.40;99.90;;;;;;4924645;29;20507;-82
2024/02/27 05:26:52;;;;;;;2.57;1.40;;;7.40;99.90;;;;;;4918266;29;20535;-81
2024/02/27 05:29:20;;;;;;;3.10;1.40;;;7.40;99.90;;;;;;4925491;29;20496;-83
2024/02/27 05:31:47;;;;;;;3.23;1.57;;;7.40;99.90;;;;;;4939477;29;20451;-82
2024/02/27 05:34:13;;;;;;;7.90;1.63;;;7.30;99.90;;;;;;4940256;29;20448;-82
2024/02/27 05:36:40;;;;;;;2.70;1.63;;;7.30;99.90;;;;;;4938477;29;20457;-82
2024/02/27 05:39:08;;;;;;;3.97;1.77;;;7.30;99.90;;;;;;4926552;29;20464;-81
2024/02/27 05:41:35;;;;;;;3.00;1.63;;;7.30;99.90;;;;;;4924214;29;21005;-81
2024/02/27 05:44:03;;;;;;;5.63;1.70;;;7.30;99.90;;;;;;4923560;29;20440;-81
2024/02/27 05:46:31;;;;;;;4.37;2.17;;;7.20;99.90;;;;;;4923419;29;20484;-82
2024/02/27 05:48:58;;;;;;;3.90;2.10;;;7.20;99.90;;;;;;4923140;29;20471;-81
2024/02/27 05:51:25;;;;;;;1.93;1.70;;;7.20;99.90;;;;;;4922636;29;20436;-82
2024/02/27 05:53:52;;;;;;;1.77;1.50;;;7.30;99.90;;;;;;4921713;29;20447;-82
2024/02/27 05:56:21;;;;;;;2.23;1.80;;;7.20;99.90;;;;;;4919393;29;20456;-82
2024/02/27 05:58:47;;;;;;;2.27;1.87;;;7.10;99.90;;;;;;4918945;29;20511;-83
2024/02/27 06:01:14;;;;;;;4.17;2.03;;;7.10;99.90;;;;;;4918820;29;20440;-82
2024/02/27 06:03:42;;;;;;;3.47;1.43;;;7.10;99.90;;;;;;4918840;29;20634;-84
2024/02/27 06:06:09;;;;;;;6.20;2.37;;;7.10;99.90;;;;;;4919162;29;20458;-82
2024/02/27 06:08:36;;;;;;;4.37;2.07;;;7.10;99.90;;;;;;4918946;29;20467;-83
2024/02/27 06:11:02;;;;;;;6.87;2.73;;;7.10;99.90;;;;;;4919038;29;20452;-83
2024/02/27 06:13:29;;;;;;;4.20;2.13;;;7.10;99.90;;;;;;4918728;29;20459;-83
2024/02/27 06:15:57;;;;;;;11.70;2.27;;;7.00;99.90;;;;;;4918587;29;20508;-84
2024/02/27 06:18:23;;;;;;;7.07;2.40;;;7.00;99.90;;;;;;4918105;29;20491;-83
2024/02/27 06:23:36;;;;;;;6.63;2.83;;;7.00;99.90;;;;;;4918317;29;20416;-83
2024/02/27 06:26:03;;;;;;;4.47;2.50;;;7.00;99.90;;;;;;4917491;29;20516;-83
2024/02/27 06:28:29;;;;;;;3.30;2.00;;;6.90;99.90;;;;;;4918044;29;20472;-84
2024/02/27 06:30:56;;;;;;;4.70;2.83;;;6.90;99.90;;;;;;4919352;29;20512;-83
2024/02/27 06:33:23;;;;;;;5.50;1.83;;;6.90;99.90;;;;;;4921241;29;20783;-83
2024/02/27 06:35:51;;;;;;;9.63;3.43;;;6.90;99.90;;;;;;4921882;29;20452;-83
2024/02/27 06:38:17;;;;;;;4.30;2.20;;;6.90;99.90;;;;;;4922072;29;20472;-83
2024/02/27 06:40:44;;;;;;;4.83;2.43;;;6.90;99.90;;;;;;4922085;29;20456;-83
2024/02/27 06:43:12;;;;;;;5.53;1.60;;;6.90;99.90;;;;;;4922310;29;20459;-83
2024/02/27 06:45:40;;;;;;;11.30;2.33;;;6.80;99.90;;;;;;4921849;29;20495;-83
2024/02/27 06:48:09;;;;;;;5.10;3.03;;;6.90;99.90;;;;;;4921972;29;20452;-84
2024/02/27 06:50:36;;;;;;;8.40;2.97;;;6.90;99.90;;;;;;4921918;29;20456;-83
2024/02/27 06:53:04;;;;;;;4.70;1.70;;;6.90;99.90;;;;;;4921756;29;20452;-83
2024/02/27 06:55:31;;;;;;;5.00;2.60;;;6.90;99.90;;;;;;4922063;29;20602;-83
2024/02/27 06:57:58;;;;;;;12.93;2.50;;;6.90;99.90;;;;;;4921511;29;20488;-83
2024/02/27 07:00:25;;;;;;;3.57;2.50;;;6.90;99.90;;;;;;4921487;29;20495;-84
2024/02/27 07:02:52;;;;;;;3.20;2.23;;;6.90;99.90;;;;;;4923403;29;20876;-83
2024/02/27 07:05:18;;;;;;;4.00;2.60;;;6.90;99.90;;;;;;4922315;29;20456;-83
2024/02/27 07:07:45;;;;;;;6.00;2.40;;;6.90;99.90;;;;;;4921997;29;20447;-83
2024/02/27 07:10:13;;;;;;;3.93;2.17;;;6.90;99.90;;;;;;4921581;29;20467;-83
2024/02/27 07:12:41;;;;;;;4.90;2.90;;;7.00;99.90;;;;;;4922133;29;20546;-83
2024/02/27 07:15:09;;;;;;;2.90;1.77;;;7.00;99.90;;;;;;4922017;29;20459;-83
2024/02/27 07:17:35;;;;;;;5.77;2.97;;;7.00;99.90;;;;;;4921727;29;20479;-82
2024/02/27 07:20:03;;;;;;;4.13;2.60;;;7.10;99.90;;;;;;4921615;29;20471;-84
2024/02/27 07:22:31;;;;;;;2.70;2.47;;;7.10;99.90;;;;;;4921846;29;20460;-84
2024/02/27 07:24:57;;;;;;;5.77;2.97;;;7.00;99.90;;;;;;4921333;29;20460;-84
2024/02/27 07:27:25;;;;;;;5.53;2.30;;;7.00;99.90;;;;;;4921609;29;20451;-84
2024/02/27 07:29:52;;;;;;;5.80;3.50;;;7.00;99.90;;;;;;4920896;29;20510;-84
2024/02/27 07:32:19;;;;;;;3.87;2.53;;;7.00;99.90;;;;;;4921340;29;20463;-84
2024/02/27 07:34:46;;;;;;;3.70;2.50;;;7.10;99.90;;;;;;4921605;29;20452;-84
2024/02/27 07:37:14;;;;;;;3.47;2.97;;;7.10;99.90;;;;;;4922072;29;20462;-83
2024/02/27 07:39:41;;;;;;;4.20;1.93;;;7.20;99.90;;;;;;4921977;29;20504;-83
2024/02/27 07:42:08;;;;;;;4.33;2.40;;;7.20;99.90;;;;;;4924584;29;20456;-84
2024/02/27 07:44:36;;;;;;;6.83;2.80;;;7.20;99.90;;;;;;4920468;29;20960;-84
2024/02/27 07:47:02;;;;;;;3.77;3.27;;;7.10;99.90;;;;;;4921048;29;20452;-83
2024/02/27 07:49:29;;;;;;;3.70;2.97;;;7.20;99.90;;;;;;4920514;29;20464;-83
2024/02/27 07:51:56;;;;;;;8.07;2.77;;;7.20;99.90;;;;;;4919466;29;20968;-83
2024/02/27 07:54:23;;;;;;;7.57;3.13;;;7.20;99.90;;;;;;4922869;29;20432;-83
2024/02/27 07:56:50;;;;;;;6.87;2.60;;;7.20;99.90;;;;;;4924700;29;20966;-83
2024/02/27 07:59:16;;;;;;;4.07;2.20;;;7.30;99.90;;;;;;4924595;29;20492;-83
2024/02/27 08:01:44;;;;;;;9.60;3.77;;;7.30;99.90;;;;;;4923943;29;20456;-84
2024/02/27 08:04:11;;;;;;;5.43;2.67;;;7.50;99.90;;;;;;4922920;29;20448;-83
2024/02/27 08:06:39;;;;;;;3.17;2.43;;;7.60;99.90;;;;;;4923646;29;20459;-83
2024/02/27 08:09:06;;;;;;;6.50;2.40;;;7.70;99.90;;;;;;4924661;29;20483;-84
2024/02/27 08:11:33;;;;;;;4.97;2.67;;;7.70;99.90;;;;;;4924422;29;20531;-83
2024/02/27 08:14:01;;;;;;;2.90;2.70;;;7.70;99.90;;;;;;4923369;29;20456;-83
2024/02/27 08:16:28;;;;;;;9.37;3.23;;;7.70;99.90;;;;;;4922362;29;21009;-83
2024/02/27 08:18:56;;;;;;;4.97;2.00;;;7.70;99.90;;;;;;4921757;29;20494;-83
2024/02/27 08:21:22;;;;;;;8.60;3.00;;;7.60;99.90;;;;;;4921176;29;20976;-83
2024/02/27 08:23:49;;;;;;;5.10;2.80;;;7.60;99.90;;;;;;4921486;29;20503;-83
2024/02/27 08:26:16;;;;;;;3.13;2.20;;;7.50;99.90;;;;;;4921302;29;20452;-84
2024/02/27 08:28:43;;;;;;;10.07;4.70;;;7.50;99.90;;;;;;4920770;29;20472;-83
2024/02/27 08:31:10;;;;;;;9.10;2.27;;;7.60;99.90;;;;;;4920468;29;20480;-82
2024/02/27 08:33:38;;;;;;;3.20;2.60;;;7.80;99.90;;;;;;4921185;29;20507;-83
2024/02/27 08:36:07;;;;;;;5.80;2.93;;;8.10;99.90;;;;;;4921043;29;20452;-82
2024/02/27 08:38:33;;;;;;;7.60;3.30;;;8.40;99.90;;;;;;4920530;29;20488;-83
2024/02/27 08:41:01;;;;;;;8.20;3.03;;;8.70;99.90;;;;;;4921468;29;20455;-82
2024/02/27 08:43:28;;;;;;;4.40;2.90;;;8.90;99.90;;;;;;4921233;29;20460;-83
2024/02/27 08:45:55;;;;;;;7.30;3.77;;;8.90;99.90;;;;;;4920888;29;20444;-80
2024/02/27 08:48:21;;;;;;;5.90;3.43;;;8.80;99.90;;;;;;4920833;29;20440;-82
2024/02/27 08:50:48;;;;;;;8.90;3.37;;;8.60;99.90;;;;;;4921453;29;20805;-82
2024/02/27 08:53:16;;;;;;;10.27;3.07;;;8.70;99.90;;;;;;4920610;29;20463;-83
2024/02/27 08:55:43;;;;;;;10.43;3.70;;;8.80;99.90;;;;;;4921541;29;20436;-83
2024/02/27 08:58:10;;;;;;;7.40;3.03;;;8.90;99.90;;;;;;4921646;29;20551;-83
2024/02/27 09:00:37;;;;;;;8.23;3.93;;;9.10;99.90;;;;;;4922658;29;20464;-81
2024/02/27 09:03:05;;;;;;;6.33;3.23;;;9.20;99.90;;;;;;4922562;29;20507;-82
2024/02/27 09:05:32;;;;;;;6.40;3.30;;;9.30;99.90;;;;;;4922124;29;20463;-83
2024/02/27 09:07:59;;;;;;;8.40;4.67;;;9.30;99.90;;;;;;4922846;29;20444;-83
2024/02/27 09:10:27;;;;;;;6.27;3.90;;;9.10;99.90;;;;;;4922912;29;20514;-82
2024/02/27 09:12:55;;;;;;;9.23;3.57;;;9.00;99.90;;;;;;4922048;29;20447;-83
2024/02/27 09:15:22;;;;;;;9.27;3.10;;;9.20;99.90;;;;;;4921002;29;20464;-82
2024/02/27 09:17:48;;;;;;;9.03;3.30;;;9.30;99.90;;;;;;4924252;29;20448;-81
2024/02/27 09:20:16;;;;;;;5.90;2.53;;;9.40;99.90;;;;;;4920148;29;20563;-82
2024/02/27 09:22:43;;;;;;;5.93;2.70;;;9.50;99.90;;;;;;4921621;29;20901;-81
2024/02/27 09:25:10;;;;;;;4.07;2.60;;;9.40;99.90;;;;;;4919595;29;20447;-82
2024/02/27 09:27:38;;;;;;;7.40;4.50;;;9.20;99.90;;;;;;4917938;29;20441;-83
2024/02/27 09:30:06;;;;;;;4.20;3.43;;;9.00;99.90;;;;;;4898968;29;20484;-82
2024/02/27 09:32:33;;;;;;;6.50;4.03;;;8.90;99.90;;;;;;4915702;29;20444;-83
2024/02/27 09:34:59;;;;;;;4.67;3.30;;;8.80;99.90;;;;;;4918386;29;20773;-82
2024/02/27 09:37:26;;;;;;;8.73;4.43;;;8.70;99.90;;;;;;4918254;29;20440;-82
2024/02/27 09:39:53;;;;;;;16.37;5.07;;;8.70;99.90;;;;;;4918918;29;20526;-83
2024/02/27 09:42:21;;;;;;;4.90;3.00;;;8.70;99.90;;;;;;4918684;29;21058;-83
2024/02/27 09:44:52;;;;;;;7.30;3.77;;;8.70;99.90;;;;;;4917695;29;20456;-83
2024/02/27 09:47:20;;;;;;;6.33;3.50;;;8.80;99.90;;;;;;4917668;29;20818;-83
2024/02/27 09:49:48;;;;;;;8.37;3.57;;;8.80;99.90;;;;;;4917788;29;20882;-83
2024/02/27 09:52:16;;;;;;;7.90;2.80;;;8.80;99.90;;;;;;4917625;29;20448;-82
2024/02/27 09:54:43;;;;;;;10.73;3.60;;;8.90;99.90;;;;;;4921659;29;20964;-81
2024/02/27 09:57:10;;;;;;;7.50;3.10;;;9.00;99.90;;;;;;4921053;29;20452;-82
2024/02/27 09:59:38;;;;;;;4.33;2.50;;;9.10;99.90;;;;;;4920470;29;20500;-82
2024/02/27 10:02:12;;;;;;;8.53;3.90;;;9.00;99.90;;;;;;4919630;29;20456;-82
2024/02/27 10:04:39;;;;;;;8.30;4.80;;;9.10;99.90;;;;;;4918779;29;20436;-83
2024/02/27 10:07:08;;;;;;;5.13;3.50;;;9.40;99.90;;;;;;4918807;29;20949;-83
2024/02/27 10:09:36;;;;;;;4.90;2.87;;;9.40;99.90;;;;;;4918305;29;20993;-82
2024/02/27 10:12:05;;;;;;;6.73;3.83;;;9.50;99.90;;;;;;4918191;29;20811;-83
2024/02/27 10:14:32;;;;;;;5.13;3.27;;;9.50;99.90;;;;;;4918210;29;20522;-83
2024/02/27 10:17:00;;;;;;;12.00;3.00;;;9.60;99.90;;;;;;4917715;29;20456;-83
2024/02/27 10:19:29;;;;;;;5.90;3.47;;;9.60;99.90;;;;;;4917546;29;21092;-83
2024/02/27 10:21:56;;;;;;;7.53;3.60;;;9.60;99.90;;;;;;4917999;29;20451;-83
2024/02/27 10:24:24;;;;;;;7.23;3.80;;;9.40;99.90;;;;;;4917551;29;21009;-83
2024/02/27 10:26:52;;;;;;;6.33;3.60;;;9.40;99.90;;;;;;4917485;29;20452;-83
2024/02/27 10:29:20;;;;;;;10.27;4.10;;;9.30;99.90;;;;;;4918078;29;20480;-83
2024/02/27 10:31:46;;;;;;;7.43;4.03;;;9.30;99.90;;;;;;4918950;29;20944;-82
2024/02/27 10:34:13;;;;;;;10.30;3.30;;;9.40;99.90;;;;;;4918260;29;20443;-82
2024/02/27 10:36:41;;;;;;;6.37;3.50;;;9.40;99.90;;;;;;4918783;29;20455;-82
2024/02/27 10:39:09;;;;;;;7.03;3.73;;;10.10;99.90;;;;;;4925700;29;20499;-82
2024/02/27 10:41:38;;;;;;;10.40;3.50;;;9.40;99.90;;;;;;4920237;29;20511;-82
2024/02/27 10:44:07;;;;;;;8.97;4.07;;;9.50;99.90;;;;;;4918995;29;20523;-83
2024/02/27 10:46:35;;;;;;;4.17;3.17;;;9.50;99.90;;;;;;4917698;29;20478;-82
2024/02/27 10:49:02;;;;;;;4.90;3.27;;;9.50;99.90;;;;;;4917259;29;20483;-83
2024/02/27 10:51:29;;;;;;;6.07;4.30;;;9.60;99.90;;;;;;4916928;29;20452;-83
2024/02/27 10:53:59;;;;;;;10.37;4.30;;;9.50;99.90;;;;;;4916566;29;20442;-83
2024/02/27 10:56:25;;;;;;;9.03;4.97;;;9.50;99.90;;;;;;4916990;29;20448;-83
2024/02/27 10:58:53;;;;;;;8.83;4.23;;;9.60;99.90;;;;;;4916361;29;20484;-83
2024/02/27 11:01:20;;;;;;;8.20;3.40;;;9.60;99.90;;;;;;4916739;29;20933;-83
2024/02/27 11:03:53;;;;;;;5.90;3.20;;;9.60;99.90;;;;;;4916683;29;20448;-83
2024/02/27 11:06:23;;;;;;;5.70;3.60;;;9.70;99.90;;;;;;4916457;29;20432;-83
2024/02/27 11:08:55;;;;;;;9.20;3.33;;;9.80;99.90;;;;;;4916709;29;20460;-83
2024/02/27 11:11:26;;;;;;;7.43;3.37;;;9.80;99.90;;;;;;4916649;29;20441;-83
2024/02/27 11:13:54;;;;;;;7.47;4.17;;;9.90;99.90;;;;;;4916552;29;20889;-83
2024/02/27 11:16:23;;;;;;;7.70;3.37;;;10.00;99.90;;;;;;4917024;29;20463;-83
2024/02/27 11:18:54;;;;;;;8.67;4.50;;;10.10;99.90;;;;;;4919898;29;20480;-83
2024/02/27 11:21:22;;;;;;;6.10;4.10;;;10.60;99.90;;;;;;4920335;29;20439;-82
2024/02/27 11:23:50;;;;;;;6.20;4.80;;;10.20;99.90;;;;;;4920201;29;20993;-83
2024/02/27 11:26:18;;;;;;;6.13;4.27;;;10.30;99.90;;;;;;4919999;29;20459;-83
2024/02/27 11:28:48;;;;;;;13.30;5.77;;;10.50;99.90;;;;;;4919883;29;20475;-83
2024/02/27 11:31:16;;;;;;;12.37;5.90;;;10.80;99.90;;;;;;4919950;29;20472;-83
2024/02/27 11:33:44;;;;;;;9.50;5.10;;;10.90;99.90;;;;;;4920090;29;20460;-83
2024/02/27 11:36:11;;;;;;;9.30;4.60;;;11.30;99.90;;;;;;4920199;29;20819;-83
2024/02/27 11:38:38;;;;;;;7.23;3.80;;;11.60;99.90;;;;;;4920512;29;20472;-81
2024/02/27 11:41:05;;;;;;;9.20;4.47;;;11.90;99.90;;;;;;4921249;29;20456;-83
2024/02/27 11:43:31;;;;;;;13.83;5.47;;;12.10;99.90;;;;;;4920030;29;20459;-81
2024/02/27 11:46:35;;;;;;;6.83;4.60;;;12.20;99.90;;;;;;4919915;29;20454;-81
2024/02/27 11:49:03;;;;;;;11.00;4.47;;;12.30;99.90;;;;;;4919892;29;20467;-81
2024/02/27 11:51:31;;;;;;;8.57;5.03;;;12.50;99.90;;;;;;4920209;29;20867;-80
2024/02/27 11:53:58;;;;;;;8.57;4.20;;;12.30;99.90;;;;;;4919754;29;20810;-81
2024/02/27 11:56:26;;;;;;;10.20;5.10;;;12.00;99.90;;;;;;4919687;29;20444;-81
2024/02/27 11:58:53;;;;;;;10.50;5.13;;;11.70;99.90;;;;;;4919350;29;20828;-80
2024/02/27 12:01:23;;;;;;;7.67;4.50;;;11.40;99.90;;;;;;4919421;29;20444;-82
2024/02/27 12:03:50;;;;;;;19.37;5.00;;;11.20;99.90;;;;;;4919570;29;20476;-81
2024/02/27 12:06:17;;;;;;;6.50;3.80;;;11.10;99.90;;;;;;4919150;29;20942;-81
2024/02/27 12:08:48;;;;;;;11.70;5.67;;;11.00;99.90;;;;;;4919710;29;20807;-79
2024/02/27 12:11:16;;;;;;;12.63;6.00;;;11.00;99.90;;;;;;4920608;29;20436;-80
2024/02/27 12:13:45;;;;;;;10.10;4.73;;;11.00;99.90;;;;;;4921284;29;20503;-81
2024/02/27 12:16:12;;;;;;;11.23;5.60;;;10.80;99.90;;;;;;4921062;29;20452;-81
2024/02/27 12:18:41;;;;;;;11.90;5.53;;;10.60;99.90;;;;;;4920581;29;20834;-81
2024/02/27 12:21:08;;;;;;;14.60;5.57;;;10.50;99.90;;;;;;4920083;29;20808;-81
2024/02/27 12:23:36;;;;;;;7.60;3.63;;;10.40;99.90;;;;;;4920155;29;20460;-81
2024/02/27 12:26:02;;;;;;;13.00;5.30;;;10.40;99.90;;;;;;4920160;29;20467;-81
2024/02/27 12:28:30;;;;;;;12.10;5.93;;;10.40;99.90;;;;;;4918627;29;20468;-82
2024/02/27 12:30:58;;;;;;;8.87;4.73;;;10.30;99.90;;;;;;4919296;29;20484;-81
2024/02/27 12:33:25;;;;;;;10.70;5.20;;;10.20;99.90;;;;;;4919298;29;20456;-81
2024/02/27 12:35:53;;;;;;;8.13;5.13;;;10.30;99.90;;;;;;4919341;29;20456;-82
2024/02/27 12:38:20;;;;;;;12.60;5.00;;;10.20;99.90;;;;;;4919113;29;20487;-82
2024/02/27 12:40:47;;;;;;;9.67;5.60;;;10.20;99.90;;;;;;4918476;29;20487;-82
2024/02/27 12:43:14;;;;;;;6.87;4.33;;;10.30;99.90;;;;;;4918887;29;20817;-82
2024/02/27 12:45:40;;;;;;;14.73;6.60;;;10.30;99.90;;;;;;4918826;29;20448;-81
2024/02/27 12:48:08;;;;;;;15.17;6.13;;;10.30;99.90;;;;;;4918652;29;20444;-82
2024/02/27 12:50:34;;;;;;;7.30;4.97;;;10.30;99.90;;;;;;4918350;29;20448;-81
2024/02/27 12:53:03;;;;;;;11.10;5.90;;;10.40;99.90;;;;;;4922709;29;20489;-81
2024/02/27 12:55:30;;;;;;;15.67;5.70;;;10.50;99.90;;;;;;4920553;29;20460;-81
2024/02/27 12:57:57;;;;;;;7.80;3.93;;;10.40;99.90;;;;;;4919050;29;20459;-83